Time;durP1;ratioP1;P1;durP2;ratioP2;P2;SDS_P1;SDS_P2;PMS_P1;PMS_P2;Temp;Humidity;BMP_temperature;BMP_pressure;BME280_temperature;BME280_humidity;BME280_pressure;Samples;Min_cycle;Max_cycle;Signal;HPM_P1;HPM_P2
2022/12/30 00:00:31;;;;;;;0.50;0.50;;;;;;;;;;5010795;28;20080;-84
2022/12/30 00:02:57;;;;;;;0.20;0.20;;;;;;;;;;5025696;28;20022;-82
2022/12/30 00:05:22;;;;;;;0.10;0.10;;;;;;;;;;5030503;28;20124;-83
2022/12/30 00:07:47;;;;;;;0.20;0.20;;;;;;;;;;5029355;28;20068;-81
2022/12/30 00:10:13;;;;;;;0.52;0.52;;;;;;;;;;5022748;28;20029;-79
2022/12/30 00:35:00;;;;;;;3.10;1.20;;;;;;;;;;5024168;28;20245;-83
2022/12/30 00:37:26;;;;;;;0.20;0.20;;;;;;;;;;5016016;28;20046;-83
2022/12/30 00:39:52;;;;;;;0.20;0.20;;;;;;;;;;5001626;28;20022;-81
2022/12/30 00:45:01;;;;;;;0.17;0.17;;;;;;;;;;5021849;28;20067;-82
2022/12/30 00:47:27;;;;;;;5.43;1.23;;;;;;;;;;5021493;28;20633;-80
2022/12/30 00:58:04;;;;;;;0.10;0.10;;;;;;;;;;5023422;28;20100;-81
2022/12/30 01:00:29;;;;;;;0.10;0.10;;;;;;;;;;5022788;28;20107;-81
2022/12/30 01:02:55;;;;;;;0.10;0.10;;;;;;;;;;5023121;28;20032;-84
2022/12/30 01:05:20;;;;;;;0.10;0.10;;;;;;;;;;5021756;28;20061;-83
2022/12/30 01:07:46;;;;;;;0.35;0.35;;;;;;;;;;5028201;28;20045;-82
2022/12/30 01:10:13;;;;;;;0.10;0.10;;;;;;;;;;5025170;28;20026;-83
2022/12/30 01:12:38;;;;;;;0.20;0.20;;;;;;;;;;5022846;28;20484;-80
2022/12/30 01:15:04;;;;;;;0.20;0.20;;;;;;;;;;5022262;28;20047;-81
2022/12/30 01:17:30;;;;;;;0.10;0.10;;;;;;;;;;5032912;28;20029;-79
2022/12/30 01:19:56;;;;;;;0.10;0.10;;;;;;;;;;5034368;28;20021;-81
2022/12/30 01:22:22;;;;;;;0.17;0.17;;;;;;;;;;5033231;28;20350;-79
2022/12/30 01:24:47;;;;;;;0.17;0.17;;;;;;;;;;5033384;28;20056;-78
2022/12/30 01:27:13;;;;;;;0.20;0.20;;;;;;;;;;5015879;28;20041;-79
2022/12/30 01:29:41;;;;;;;1.10;1.10;;;;;;;;;;5033142;28;20029;-80
2022/12/30 01:32:08;;;;;;;0.20;0.20;;;;;;;;;;5033097;28;20033;-79
2022/12/30 01:34:34;;;;;;;0.10;0.10;;;;;;;;;;5033266;28;20096;-80
2022/12/30 01:36:59;;;;;;;0.10;0.10;;;;;;;;;;5032890;28;20160;-82
2022/12/30 01:39:25;;;;;;;0.20;0.20;;;;;;;;;;5032918;28;20346;-82
2022/12/30 01:41:52;;;;;;;0.10;0.10;;;;;;;;;;5015497;28;20041;-80
2022/12/30 01:44:36;;;;;;;0.10;0.10;;;;;;;;;;4999012;28;20025;-82
2022/12/30 01:47:01;;;;;;;0.68;0.68;;;;;;;;;;5032756;28;20041;-79
2022/12/30 01:49:27;;;;;;;0.10;0.10;;;;;;;;;;5030493;28;20021;-81
2022/12/30 01:51:52;;;;;;;0.20;0.20;;;;;;;;;;5033135;28;20026;-84
2022/12/30 01:54:18;;;;;;;0.13;0.13;;;;;;;;;;5031197;28;20357;-84
2022/12/30 01:56:44;;;;;;;0.13;0.13;;;;;;;;;;5033616;28;20373;-83
2022/12/30 01:59:18;;;;;;;0.10;0.10;;;;;;;;;;5036171;28;20381;-84
2022/12/30 02:01:44;;;;;;;0.10;0.10;;;;;;;;;;5035653;28;20128;-84
2022/12/30 02:04:15;;;;;;;0.40;0.40;;;;;;;;;;5036927;28;20041;-84
2022/12/30 02:06:43;;;;;;;0.10;0.10;;;;;;;;;;5036746;28;20064;-84
2022/12/30 02:09:09;;;;;;;0.10;0.10;;;;;;;;;;5036009;28;20031;-85
2022/12/30 02:11:34;;;;;;;0.10;0.10;;;;;;;;;;5036294;28;20108;-84
2022/12/30 02:14:00;;;;;;;0.10;0.10;;;;;;;;;;5018839;28;20107;-81
2022/12/30 02:16:40;;;;;;;0.10;0.10;;;;;;;;;;5035856;28;20036;-81
2022/12/30 02:19:15;;;;;;;0.10;0.10;;;;;;;;;;5036515;28;20056;-82
2022/12/30 02:21:59;;;;;;;0.10;0.10;;;;;;;;;;5036243;28;20037;-81
2022/12/30 02:24:31;;;;;;;4.50;4.28;;;;;;;;;;5035977;28;20072;-83
2022/12/30 02:27:10;;;;;;;0.10;0.10;;;;;;;;;;5036290;28;20072;-81
2022/12/30 02:29:54;;;;;;;0.30;0.30;;;;;;;;;;5018369;28;20109;-79
2022/12/30 02:32:22;;;;;;;0.10;0.10;;;;;;;;;;5035980;28;20026;-79
2022/12/30 02:34:51;;;;;;;0.10;0.10;;;;;;;;;;5035837;28;20033;-80
2022/12/30 02:37:28;;;;;;;0.10;0.10;;;;;;;;;;5035621;28;20048;-81
2022/12/30 02:40:02;;;;;;;0.10;0.10;;;;;;;;;;5018301;28;20346;-77
2022/12/30 02:45:18;;;;;;;4.10;3.83;;;;;;;;;;5035635;28;20034;-78
2022/12/30 02:47:46;;;;;;;0.30;0.30;;;;;;;;;;5035888;28;20041;-82
2022/12/30 02:53:00;;;;;;;0.28;0.28;;;;;;;;;;5035836;28;20029;-79
2022/12/30 02:55:26;;;;;;;0.32;0.32;;;;;;;;;;5035185;28;20076;-79
2022/12/30 02:57:52;;;;;;;0.20;0.20;;;;;;;;;;5035767;28;20033;-78
2022/12/30 03:05:47;;;;;;;0.20;0.20;;;;;;;;;;5035581;28;20083;-78
2022/12/30 03:08:21;;;;;;;0.40;0.40;;;;;;;;;;5034917;28;20029;-78
2022/12/30 03:14:00;;;;;;;0.10;0.10;;;;;;;;;;5035466;28;20033;-78
2022/12/30 03:16:38;;;;;;;1.30;1.27;;;;;;;;;;5032190;28;20427;-78
2022/12/30 03:19:09;;;;;;;0.10;0.10;;;;;;;;;;5035445;28;20036;-78
2022/12/30 03:21:37;;;;;;;0.10;0.10;;;;;;;;;;5001235;28;20147;-79
2022/12/30 03:27:03;;;;;;;0.10;0.10;;;;;;;;;;5034668;28;20488;-80
2022/12/30 03:29:28;;;;;;;;;;;;;;;;;;5017952;28;20176;-79
2022/12/30 03:31:54;;;;;;;0.30;0.30;;;;;;;;;;5035088;28;20008;-80
2022/12/30 03:34:20;;;;;;;1.10;1.10;;;;;;;;;;5034957;28;20297;-82
2022/12/30 03:36:47;;;;;;;0.20;0.20;;;;;;;;;;5034677;28;20543;-82
2022/12/30 03:39:15;;;;;;;0.20;0.20;;;;;;;;;;5034916;28;20033;-81
2022/12/30 03:41:43;;;;;;;0.10;0.10;;;;;;;;;;5034650;28;20037;-81
2022/12/30 03:44:09;;;;;;;0.20;0.20;;;;;;;;;;5035024;28;20504;-82
2022/12/30 03:46:34;;;;;;;0.10;0.10;;;;;;;;;;5034926;28;20048;-83
2022/12/30 03:49:00;;;;;;;0.43;0.43;;;;;;;;;;5034810;28;20457;-83
2022/12/30 03:51:25;;;;;;;0.15;0.15;;;;;;;;;;5034727;28;20029;-82
2022/12/30 03:53:51;;;;;;;0.10;0.10;;;;;;;;;;5033314;28;20102;-82
2022/12/30 03:56:17;;;;;;;0.10;0.10;;;;;;;;;;5034166;28;20045;-82
2022/12/30 03:58:42;;;;;;;0.20;0.20;;;;;;;;;;5017054;28;20063;-81
2022/12/30 04:01:07;;;;;;;0.10;0.10;;;;;;;;;;5034678;28;20108;-85
2022/12/30 04:03:33;;;;;;;0.10;0.10;;;;;;;;;;5028507;28;20083;-81
2022/12/30 04:05:58;;;;;;;0.63;0.63;;;;;;;;;;5030862;28;20029;-84
2022/12/30 04:08:24;;;;;;;0.17;0.17;;;;;;;;;;5030568;28;20018;-81
2022/12/30 04:10:49;;;;;;;0.28;0.28;;;;;;;;;;5030395;28;20025;-78
2022/12/30 04:13:15;;;;;;;0.10;0.10;;;;;;;;;;5030716;28;20033;-81
2022/12/30 04:15:40;;;;;;;0.10;0.10;;;;;;;;;;5030198;28;20115;-81
2022/12/30 04:18:06;;;;;;;0.57;0.57;;;;;;;;;;5030159;28;20043;-82
2022/12/30 04:20:31;;;;;;;0.20;0.20;;;;;;;;;;5030037;28;20080;-87
2022/12/30 04:22:57;;;;;;;0.10;0.10;;;;;;;;;;5030404;28;20021;-85
2022/12/30 04:25:23;;;;;;;0.15;0.15;;;;;;;;;;5030161;28;20037;-82
2022/12/30 04:27:48;;;;;;;0.65;0.65;;;;;;;;;;5030045;28;20036;-80
2022/12/30 04:30:14;;;;;;;0.10;0.10;;;;;;;;;;5030101;28;20424;-82
2022/12/30 04:32:40;;;;;;;0.17;0.17;;;;;;;;;;5013057;28;20049;-83
2022/12/30 04:35:06;;;;;;;0.10;0.10;;;;;;;;;;5030379;28;20025;-79
2022/12/30 04:37:31;;;;;;;0.10;0.10;;;;;;;;;;5030271;28;20084;-79
2022/12/30 04:39:57;;;;;;;0.20;0.20;;;;;;;;;;5029630;28;20060;-79
2022/12/30 04:42:22;;;;;;;0.20;0.20;;;;;;;;;;5030776;28;20041;-84
2022/12/30 04:44:47;;;;;;;9.93;3.85;;;;;;;;;;5028922;28;20065;-81
2022/12/30 04:47:13;;;;;;;0.20;0.20;;;;;;;;;;5028625;28;20033;-77
2022/12/30 04:49:38;;;;;;;0.20;0.20;;;;;;;;;;5030481;28;20025;-78
2022/12/30 04:52:04;;;;;;;0.10;0.10;;;;;;;;;;5028920;28;20502;-77
2022/12/30 04:54:29;;;;;;;0.20;0.20;;;;;;;;;;5030062;28;20025;-79
2022/12/30 04:56:55;;;;;;;0.15;0.15;;;;;;;;;;5029788;28;20357;-77
2022/12/30 04:59:20;;;;;;;0.13;0.13;;;;;;;;;;5029767;28;20037;-79
2022/12/30 05:01:46;;;;;;;0.10;0.10;;;;;;;;;;5028111;28;20036;-81
2022/12/30 05:04:12;;;;;;;0.20;0.20;;;;;;;;;;5029138;28;20047;-80
2022/12/30 05:06:37;;;;;;;0.20;0.20;;;;;;;;;;5029632;28;20033;-79
2022/12/30 05:09:03;;;;;;;0.10;0.10;;;;;;;;;;5028700;28;20108;-83
2022/12/30 05:11:28;;;;;;;0.10;0.10;;;;;;;;;;5029051;28;20030;-81
2022/12/30 05:13:53;;;;;;;0.10;0.10;;;;;;;;;;5029575;28;20026;-82
2022/12/30 05:16:19;;;;;;;0.20;0.20;;;;;;;;;;5029668;28;20079;-83
2022/12/30 05:18:44;;;;;;;0.10;0.10;;;;;;;;;;5029082;28;20083;-82
2022/12/30 05:21:10;;;;;;;0.10;0.10;;;;;;;;;;5029660;28;20040;-82
2022/12/30 05:26:19;;;;;;;0.10;0.10;;;;;;;;;;5030215;28;20090;-78
2022/12/30 05:28:46;;;;;;;0.10;0.10;;;;;;;;;;5028921;28;20029;-80
2022/12/30 05:31:15;;;;;;;0.10;0.10;;;;;;;;;;5030987;28;20021;-79
2022/12/30 05:33:41;;;;;;;0.90;0.90;;;;;;;;;;5033071;28;20025;-78
2022/12/30 05:36:07;;;;;;;2.53;2.33;;;;;;;;;;5033591;28;20350;-79
2022/12/30 05:38:32;;;;;;;0.22;0.22;;;;;;;;;;5033342;28;20056;-77
2022/12/30 05:40:58;;;;;;;0.30;0.30;;;;;;;;;;5032953;28;20152;-77
2022/12/30 05:43:24;;;;;;;0.10;0.10;;;;;;;;;;5015683;28;20079;-77
2022/12/30 05:45:49;;;;;;;0.10;0.10;;;;;;;;;;5032834;28;20021;-77
2022/12/30 05:48:16;;;;;;;0.40;0.40;;;;;;;;;;5032679;28;20018;-78
2022/12/30 05:50:41;;;;;;;0.20;0.20;;;;;;;;;;5033172;28;20036;-77
2022/12/30 05:53:07;;;;;;;0.63;0.63;;;;;;;;;;5031863;28;20457;-77
2022/12/30 05:55:32;;;;;;;0.20;0.20;;;;;;;;;;5032507;28;20026;-77
2022/12/30 05:57:58;;;;;;;0.22;0.22;;;;;;;;;;5032927;28;20033;-77
2022/12/30 06:00:24;;;;;;;0.32;0.32;;;;;;;;;;5032891;28;20658;-78
2022/12/30 06:02:49;;;;;;;0.32;0.32;;;;;;;;;;5033197;28;20093;-80
2022/12/30 06:05:14;;;;;;;0.10;0.10;;;;;;;;;;5021365;28;20052;-80
2022/12/30 06:07:40;;;;;;;2.28;0.50;;;;;;;;;;5032467;28;20018;-78
2022/12/30 06:10:06;;;;;;;0.10;0.10;;;;;;;;;;5032218;28;20021;-78
2022/12/30 06:12:31;;;;;;;0.10;0.10;;;;;;;;;;5030632;28;20021;-78
2022/12/30 06:14:56;;;;;;;0.20;0.20;;;;;;;;;;5032773;28;20437;-78
2022/12/30 06:17:22;;;;;;;1.95;1.85;;;;;;;;;;5032960;28;20025;-79
2022/12/30 06:19:47;;;;;;;1.42;1.33;;;;;;;;;;5031979;28;20624;-79
2022/12/30 06:22:13;;;;;;;0.22;0.22;;;;;;;;;;5031813;28;20378;-81
2022/12/30 06:24:38;;;;;;;0.10;0.10;;;;;;;;;;5031899;28;20052;-81
2022/12/30 06:27:03;;;;;;;1.58;1.48;;;;;;;;;;5031624;28;20026;-79
2022/12/30 06:29:29;;;;;;;0.20;0.20;;;;;;;;;;5032663;28;20030;-79
2022/12/30 06:31:54;;;;;;;1.38;1.30;;;;;;;;;;5031425;28;20528;-81
2022/12/30 06:34:20;;;;;;;1.55;1.45;;;;;;;;;;5031295;28;20484;-81
2022/12/30 06:36:45;;;;;;;0.73;0.73;;;;;;;;;;5031740;28;20099;-79
2022/12/30 06:39:11;;;;;;;0.15;0.15;;;;;;;;;;5031937;28;20908;-80
2022/12/30 06:41:36;;;;;;;0.10;0.10;;;;;;;;;;5030779;28;20418;-79
2022/12/30 06:44:01;;;;;;;0.30;0.30;;;;;;;;;;5031803;28;20411;-80
2022/12/30 06:46:27;;;;;;;0.10;0.10;;;;;;;;;;5030926;28;20360;-79
2022/12/30 06:48:52;;;;;;;0.85;0.85;;;;;;;;;;5032481;28;20056;-78
2022/12/30 06:51:18;;;;;;;0.52;0.52;;;;;;;;;;5031513;28;20109;-78
2022/12/30 06:53:43;;;;;;;0.20;0.20;;;;;;;;;;5031666;28;20495;-80
2022/12/30 06:56:08;;;;;;;0.20;0.20;;;;;;;;;;5031638;28;20025;-81
2022/12/30 06:58:34;;;;;;;0.45;0.45;;;;;;;;;;5013998;28;20427;-80
2022/12/30 07:00:59;;;;;;;0.55;0.55;;;;;;;;;;5028366;28;20063;-81
2022/12/30 07:03:25;;;;;;;1.30;1.20;;;;;;;;;;5011723;28;20061;-81
2022/12/30 07:05:50;;;;;;;0.10;0.10;;;;;;;;;;5017522;28;20029;-79
2022/12/30 07:08:16;;;;;;;2.85;2.65;;;;;;;;;;5031172;28;20038;-79
2022/12/30 07:10:41;;;;;;;0.25;0.25;;;;;;;;;;5031605;28;20022;-78
2022/12/30 07:13:07;;;;;;;0.30;0.30;;;;;;;;;;5031765;28;20022;-82
2022/12/30 07:15:33;;;;;;;0.13;0.13;;;;;;;;;;5031667;28;20024;-82
2022/12/30 07:17:58;;;;;;;0.20;0.20;;;;;;;;;;5013143;28;20025;-82
2022/12/30 07:20:23;;;;;;;2.78;2.05;;;;;;;;;;5030732;28;20021;-80
2022/12/30 07:22:49;;;;;;;13.63;1.38;;;;;;;;;;5031829;28;20025;-84
2022/12/30 07:25:14;;;;;;;0.10;0.10;;;;;;;;;;5030988;28;20032;-80
2022/12/30 07:27:40;;;;;;;3.45;3.15;;;;;;;;;;5029994;28;20051;-81
2022/12/30 07:30:05;;;;;;;18.42;1.67;;;;;;;;;;5025694;28;20034;-83
2022/12/30 07:32:31;;;;;;;5.13;4.68;;;;;;;;;;5012428;28;20024;-83
2022/12/30 07:34:56;;;;;;;0.63;0.63;;;;;;;;;;5030113;28;20103;-83
2022/12/30 07:37:22;;;;;;;0.20;0.20;;;;;;;;;;4998173;28;20103;-79
2022/12/30 07:39:47;;;;;;;0.35;0.35;;;;;;;;;;5031293;28;20021;-82
2022/12/30 07:42:13;;;;;;;0.10;0.10;;;;;;;;;;5024444;28;20025;-78
2022/12/30 07:44:38;;;;;;;0.17;0.17;;;;;;;;;;5012465;28;20438;-83
2022/12/30 07:47:04;;;;;;;0.20;0.20;;;;;;;;;;4994267;28;20080;-80
2022/12/30 07:49:30;;;;;;;0.15;0.15;;;;;;;;;;5011220;28;20049;-79
2022/12/30 07:51:55;;;;;;;0.52;0.50;;;;;;;;;;5009807;28;20061;-80
2022/12/30 07:54:20;;;;;;;0.30;0.30;;;;;;;;;;5008650;28;20042;-78
2022/12/30 07:56:46;;;;;;;0.15;0.15;;;;;;;;;;5017891;28;20052;-83
2022/12/30 07:59:14;;;;;;;0.10;0.10;;;;;;;;;;5030148;28;20020;-79
2022/12/30 08:01:40;;;;;;;0.20;0.20;;;;;;;;;;5028721;28;20360;-78
2022/12/30 08:04:05;;;;;;;0.10;0.10;;;;;;;;;;5024329;28;20021;-79
2022/12/30 08:06:31;;;;;;;0.40;0.40;;;;;;;;;;5030320;28;20421;-80
2022/12/30 08:08:56;;;;;;;4.10;1.65;;;;;;;;;;5020699;28;20018;-79
2022/12/30 08:11:21;;;;;;;0.10;0.10;;;;;;;;;;5011197;28;20033;-79
2022/12/30 08:13:47;;;;;;;0.10;0.10;;;;;;;;;;5025869;28;20022;-79
2022/12/30 08:16:14;;;;;;;0.10;0.10;;;;;;;;;;5030475;28;20377;-78
2022/12/30 08:18:40;;;;;;;0.10;0.10;;;;;;;;;;5020272;28;20445;-78
2022/12/30 08:21:09;;;;;;;0.20;0.20;;;;;;;;;;5012800;28;20155;-79
2022/12/30 08:23:35;;;;;;;0.13;0.13;;;;;;;;;;5012594;28;20031;-79
2022/12/30 08:26:08;;;;;;;0.10;0.10;;;;;;;;;;5030063;28;20018;-78
2022/12/30 08:28:34;;;;;;;0.10;0.10;;;;;;;;;;5030527;28;20045;-79
2022/12/30 08:31:03;;;;;;;1.10;0.98;;;;;;;;;;5028623;28;20049;-81
2022/12/30 08:33:30;;;;;;;0.10;0.10;;;;;;;;;;5006689;28;20037;-81
2022/12/30 08:35:59;;;;;;;0.93;0.93;;;;;;;;;;5024883;28;20408;-78
2022/12/30 08:38:25;;;;;;;0.20;0.20;;;;;;;;;;5029478;28;20492;-78
2022/12/30 08:40:50;;;;;;;0.10;0.10;;;;;;;;;;5024647;28;20053;-81
2022/12/30 08:43:18;;;;;;;1.65;1.55;;;;;;;;;;5017609;28;20116;-79
2022/12/30 08:45:44;;;;;;;0.10;0.10;;;;;;;;;;5023820;28;20026;-79
2022/12/30 08:48:09;;;;;;;0.30;0.30;;;;;;;;;;5028568;28;20147;-77
2022/12/30 08:50:35;;;;;;;0.40;0.40;;;;;;;;;;5029351;28;20372;-77
2022/12/30 08:53:00;;;;;;;5.85;1.75;;;;;;;;;;5029291;28;20041;-77
2022/12/30 08:55:27;;;;;;;0.10;0.10;;;;;;;;;;5029262;28;20045;-77
2022/12/30 08:57:52;;;;;;;0.10;0.10;;;;;;;;;;5028157;28;20025;-76
2022/12/30 09:00:18;;;;;;;0.20;0.20;;;;;;;;;;5029540;28;20022;-76
2022/12/30 09:02:43;;;;;;;0.28;0.28;;;;;;;;;;5028446;28;20364;-77
2022/12/30 09:05:09;;;;;;;0.10;0.10;;;;;;;;;;5029410;28;20346;-76
2022/12/30 09:07:34;;;;;;;0.20;0.20;;;;;;;;;;5029202;28;20024;-76
2022/12/30 09:10:00;;;;;;;0.10;0.10;;;;;;;;;;5029011;28;20029;-76
2022/12/30 09:12:25;;;;;;;0.20;0.20;;;;;;;;;;5024373;28;20431;-76
2022/12/30 09:14:50;;;;;;;0.10;0.10;;;;;;;;;;5028025;28;20449;-76
2022/12/30 09:17:16;;;;;;;0.20;0.20;;;;;;;;;;5011928;28;20477;-76
2022/12/30 09:19:41;;;;;;;0.20;0.20;;;;;;;;;;5026706;28;20025;-79
2022/12/30 09:22:07;;;;;;;0.10;0.10;;;;;;;;;;5018445;28;20051;-78
2022/12/30 09:24:32;;;;;;;0.38;0.35;;;;;;;;;;5026259;28;20112;-73
2022/12/30 09:26:57;;;;;;;0.10;0.10;;;;;;;;;;5008955;28;20025;-77
2022/12/30 09:29:23;;;;;;;0.20;0.20;;;;;;;;;;5025936;28;20049;-77
2022/12/30 09:31:48;;;;;;;0.30;0.30;;;;;;;;;;5023421;28;20384;-76
2022/12/30 09:34:14;;;;;;;0.10;0.10;;;;;;;;;;5008276;28;20511;-76
2022/12/30 09:36:39;;;;;;;0.35;0.35;;;;;;;;;;5011691;28;20025;-76
2022/12/30 09:39:05;;;;;;;0.30;0.30;;;;;;;;;;5006367;28;20021;-76
2022/12/30 09:44:34;;;;;;;0.30;0.30;;;;;;;;;;5026365;28;20155;-79
2022/12/30 09:47:02;;;;;;;0.30;0.30;;;;;;;;;;5025807;28;20022;-78
2022/12/30 09:49:31;;;;;;;0.28;0.28;;;;;;;;;;5017485;28;20018;-77
2022/12/30 09:52:03;;;;;;;0.32;0.32;;;;;;;;;;5024595;28;20030;-78
2022/12/30 09:54:29;;;;;;;0.20;0.20;;;;;;;;;;5025077;28;20029;-78
2022/12/30 09:57:30;;;;;;;0.85;0.65;;;;;;;;;;5024856;28;20025;-80
2022/12/30 09:59:43;;;;;;;1.85;1.63;;;;;;;;;;5025665;28;20572;-77
2022/12/30 10:02:18;;;;;;;0.50;0.50;;;;;;;;;;5023944;28;20381;-76
2022/12/30 10:04:44;;;;;;;0.20;0.20;;;;;;;;;;4994551;28;20476;-77
2022/12/30 10:07:17;;;;;;;0.75;0.75;;;;;;;;;;5026915;28;20022;-76
2022/12/30 10:09:55;;;;;;;0.80;0.60;;;;;;;;;;5026695;28;20474;-82
2022/12/30 10:12:27;;;;;;;1.55;0.90;;;;;;;;;;5027378;28;20160;-76
2022/12/30 10:15:03;;;;;;;4.28;0.82;;;;;;;;;;5027975;28;20026;-78
2022/12/30 10:17:38;;;;;;;3.42;0.95;;;;;;;;;;5025689;28;20022;-81
2022/12/30 10:20:22;;;;;;;1.00;0.60;;;;;;;;;;5028384;28;20504;-80
2022/12/30 10:22:48;;;;;;;1.30;0.77;;;;;;;;;;5027724;28;20022;-80
2022/12/30 10:25:52;;;;;;;1.20;1.20;;;;;;;;;;5029749;28;20407;-81
2022/12/30 10:28:21;;;;;;;2.83;0.95;;;;;;;;;;4978973;28;20072;-78
2022/12/30 10:30:47;;;;;;;0.38;0.38;;;;;;;;;;4957132;28;20053;-79
2022/12/30 10:33:20;;;;;;;14.45;2.55;;;;;;;;;;4986862;28;20034;-83
2022/12/30 10:35:48;;;;;;;0.30;0.30;;;;;;;;;;5023257;28;20550;-75
2022/12/30 10:38:18;;;;;;;3.20;2.90;;;;;;;;;;5032456;28;20037;-81
2022/12/30 10:40:50;;;;;;;5.72;2.00;;;;;;;;;;5032454;28;20021;-83
2022/12/30 10:43:25;;;;;;;2.53;1.77;;;;;;;;;;5032412;28;20079;-84
2022/12/30 10:46:04;;;;;;;2.08;0.88;;;;;;;;;;5032380;28;20121;-78
2022/12/30 10:48:29;;;;;;;1.03;0.93;;;;;;;;;;5037429;28;20021;-80
2022/12/30 10:50:54;;;;;;;0.75;0.57;;;;;;;;;;5028148;28;20036;-83
2022/12/30 10:53:21;;;;;;;1.10;1.00;;;;;;;;;;5030326;28;20020;-81
2022/12/30 10:55:57;;;;;;;0.75;0.63;;;;;;;;;;5029536;28;20476;-82
2022/12/30 10:58:42;;;;;;;0.43;0.43;;;;;;;;;;5014935;28;20092;-82
2022/12/30 11:01:21;;;;;;;0.80;0.38;;;;;;;;;;5029350;28;20041;-80
2022/12/30 11:03:51;;;;;;;0.77;0.77;;;;;;;;;;5029192;28;20037;-80
2022/12/30 11:06:21;;;;;;;0.55;0.45;;;;;;;;;;5028740;28;20017;-81
2022/12/30 11:08:47;;;;;;;2.75;0.73;;;;;;;;;;5028710;28;20481;-81
2022/12/30 11:11:13;;;;;;;0.20;0.20;;;;;;;;;;5028948;28;20029;-82
2022/12/30 11:16:30;;;;;;;3.50;1.85;;;;;;;;;;5028429;28;20029;-78
2022/12/30 11:18:57;;;;;;;0.10;0.10;;;;;;;;;;5015390;28;20045;-79
2022/12/30 11:21:26;;;;;;;2.47;1.20;;;;;;;;;;5022279;28;20557;-80
2022/12/30 11:23:53;;;;;;;0.40;0.38;;;;;;;;;;5029156;28;20473;-81
2022/12/30 11:26:20;;;;;;;5.35;0.45;;;;;;;;;;5029743;28;20104;-82
2022/12/30 11:28:45;;;;;;;0.22;0.22;;;;;;;;;;5031302;28;20029;-80
2022/12/30 11:31:12;;;;;;;1.90;1.13;;;;;;;;;;5031360;28;20068;-81
2022/12/30 11:33:46;;;;;;;1.33;1.00;;;;;;;;;;5031315;28;20416;-79
2022/12/30 11:36:31;;;;;;;0.43;0.43;;;;;;;;;;5031140;28;20032;-81
2022/12/30 11:39:08;;;;;;;0.60;0.57;;;;;;;;;;5011869;28;20045;-82
2022/12/30 11:41:44;;;;;;;1.77;1.50;;;;;;;;;;5011498;28;20087;-81
2022/12/30 11:44:18;;;;;;;0.20;0.20;;;;;;;;;;5011227;28;20044;-82
2022/12/30 11:46:46;;;;;;;1.27;0.90;;;;;;;;;;4985042;28;20030;-81
2022/12/30 11:49:21;;;;;;;1.70;1.50;;;;;;;;;;4991667;28;20089;-83
2022/12/30 11:51:50;;;;;;;4.07;1.42;;;;;;;;;;4995748;28;20022;-85
2022/12/30 11:54:17;;;;;;;0.82;0.80;;;;;;;;;;5003692;28;20034;-83
2022/12/30 11:56:53;;;;;;;0.70;0.70;;;;;;;;;;4991260;28;20030;-83
2022/12/30 11:59:22;;;;;;;2.05;1.15;;;;;;;;;;4995600;28;20555;-81
2022/12/30 12:01:49;;;;;;;0.95;0.88;;;;;;;;;;4991443;28;20030;-80
2022/12/30 12:04:33;;;;;;;13.25;1.20;;;;;;;;;;4996579;28;20022;-84
2022/12/30 12:06:59;;;;;;;0.70;0.30;;;;;;;;;;5000425;28;20026;-84
2022/12/30 12:09:44;;;;;;;1.15;1.00;;;;;;;;;;4993586;28;20027;-83
2022/12/30 12:12:11;;;;;;;0.80;0.80;;;;;;;;;;4986894;28;20061;-82
2022/12/30 12:14:48;;;;;;;0.40;0.40;;;;;;;;;;5010670;28;20018;-84
2022/12/30 12:17:43;;;;;;;1.95;1.20;;;;;;;;;;5010828;28;20528;-83
2022/12/30 12:20:28;;;;;;;6.78;2.20;;;;;;;;;;4997564;28;20103;-86
2022/12/30 12:23:00;;;;;;;0.60;0.60;;;;;;;;;;5014409;28;20030;-82
2022/12/30 12:25:33;;;;;;;2.90;2.65;;;;;;;;;;5009118;28;20033;-77
2022/12/30 12:28:00;;;;;;;0.52;0.45;;;;;;;;;;5027525;28;20413;-81
2022/12/30 12:30:33;;;;;;;0.60;0.60;;;;;;;;;;5027952;28;20028;-77
2022/12/30 12:33:13;;;;;;;0.55;0.55;;;;;;;;;;4996970;28;20026;-75
2022/12/30 12:36:05;;;;;;;5.57;1.20;;;;;;;;;;4988641;28;20030;-75
2022/12/30 12:38:30;;;;;;;0.80;0.70;;;;;;;;;;4984222;28;20133;-76
2022/12/30 12:41:13;;;;;;;0.43;0.43;;;;;;;;;;5008552;28;20518;-76
2022/12/30 12:43:53;;;;;;;0.20;0.20;;;;;;;;;;5008316;28;20042;-76
2022/12/30 12:46:29;;;;;;;0.20;0.20;;;;;;;;;;5008180;28;20026;-76
2022/12/30 12:49:01;;;;;;;0.45;0.45;;;;;;;;;;5006516;28;20025;-78
2022/12/30 12:51:29;;;;;;;0.45;0.45;;;;;;;;;;5007797;28;20025;-77
2022/12/30 12:54:13;;;;;;;0.50;0.50;;;;;;;;;;5007977;28;20030;-77
2022/12/30 12:56:48;;;;;;;0.30;0.30;;;;;;;;;;5007684;28;20084;-77
2022/12/30 12:59:14;;;;;;;0.85;0.55;;;;;;;;;;5008188;28;20022;-76
2022/12/30 13:01:39;;;;;;;0.57;0.38;;;;;;;;;;5007909;28;20061;-77
2022/12/30 13:04:20;;;;;;;0.57;0.50;;;;;;;;;;5008438;28;20102;-77
2022/12/30 13:06:45;;;;;;;0.30;0.30;;;;;;;;;;5029071;28;20076;-78
2022/12/30 13:09:23;;;;;;;2.17;1.05;;;;;;;;;;5032506;28;20383;-76
2022/12/30 13:11:48;;;;;;;0.35;0.35;;;;;;;;;;5025022;28;20417;-77
2022/12/30 13:14:14;;;;;;;0.40;0.40;;;;;;;;;;5038104;28;20106;-76
2022/12/30 13:16:41;;;;;;;0.70;0.55;;;;;;;;;;5037564;28;20064;-76
2022/12/30 13:19:12;;;;;;;0.57;0.57;;;;;;;;;;5038444;28;20066;-76
2022/12/30 13:21:38;;;;;;;0.52;0.47;;;;;;;;;;5034743;28;20112;-77
2022/12/30 13:24:05;;;;;;;0.47;0.47;;;;;;;;;;5027440;28;20160;-78
2022/12/30 13:26:32;;;;;;;2.58;1.65;;;;;;;;;;5011027;28;20036;-78
2022/12/30 13:28:58;;;;;;;0.40;0.40;;;;;;;;;;5002302;28;20099;-79
2022/12/30 13:31:43;;;;;;;0.77;0.63;;;;;;;;;;5017172;28;20030;-77
2022/12/30 13:34:20;;;;;;;0.40;0.40;;;;;;;;;;5029077;28;20029;-77
2022/12/30 13:37:06;;;;;;;1.30;1.13;;;;;;;;;;5028984;28;20022;-77
2022/12/30 13:39:48;;;;;;;2.30;1.85;;;;;;;;;;5028442;28;20060;-76
2022/12/30 13:42:14;;;;;;;1.33;1.00;;;;;;;;;;5028375;28;20026;-77
2022/12/30 13:44:42;;;;;;;1.88;0.95;;;;;;;;;;5034353;28;20452;-76
2022/12/30 13:47:27;;;;;;;2.50;1.27;;;;;;;;;;5010011;28;20028;-76
2022/12/30 13:49:53;;;;;;;0.20;0.20;;;;;;;;;;5012224;28;20419;-77
2022/12/30 13:52:20;;;;;;;0.30;0.30;;;;;;;;;;5010439;28;20112;-75
2022/12/30 13:54:50;;;;;;;0.63;0.45;;;;;;;;;;5030276;28;20392;-76
2022/12/30 13:57:25;;;;;;;10.27;0.90;;;;;;;;;;5030925;28;20026;-78
2022/12/30 14:00:06;;;;;;;0.40;0.40;;;;;;;;;;5051255;28;20496;-78
2022/12/30 14:02:40;;;;;;;0.20;0.20;;;;;;;;;;5039845;28;20053;-77
2022/12/30 14:05:26;;;;;;;0.65;0.45;;;;;;;;;;5030494;28;20056;-76
2022/12/30 14:07:51;;;;;;;0.30;0.30;;;;;;;;;;5033683;28;20057;-77
2022/12/30 14:10:22;;;;;;;0.20;0.20;;;;;;;;;;5030954;28;20131;-77
2022/12/30 14:13:06;;;;;;;0.77;0.77;;;;;;;;;;5023046;28;20021;-77
2022/12/30 14:15:37;;;;;;;0.77;0.77;;;;;;;;;;5027441;28;20030;-77
2022/12/30 14:18:13;;;;;;;1.08;0.98;;;;;;;;;;5032572;28;20516;-77
2022/12/30 14:20:39;;;;;;;0.35;0.35;;;;;;;;;;5020964;28;20487;-77
2022/12/30 14:23:05;;;;;;;0.25;0.25;;;;;;;;;;5018227;28;20037;-77
2022/12/30 14:25:31;;;;;;;0.20;0.20;;;;;;;;;;5036389;28;20044;-77
2022/12/30 14:28:20;;;;;;;0.75;0.75;;;;;;;;;;5012528;28;20346;-77
2022/12/30 14:30:48;;;;;;;0.30;0.30;;;;;;;;;;5022127;28;20096;-75
2022/12/30 14:33:13;;;;;;;0.13;0.13;;;;;;;;;;5034520;28;20036;-77
2022/12/30 14:35:54;;;;;;;0.73;0.60;;;;;;;;;;5052486;28;20100;-77
2022/12/30 14:38:38;;;;;;;0.70;0.70;;;;;;;;;;5052753;28;20068;-77
2022/12/30 14:41:08;;;;;;;0.98;0.90;;;;;;;;;;5032656;28;20037;-76
2022/12/30 14:43:37;;;;;;;0.32;0.32;;;;;;;;;;5036044;28;20108;-77
2022/12/30 14:46:22;;;;;;;4.10;1.23;;;;;;;;;;5025796;28;20022;-77
2022/12/30 14:48:56;;;;;;;0.43;0.43;;;;;;;;;;5031270;28;20020;-77
2022/12/30 14:51:22;;;;;;;0.57;0.57;;;;;;;;;;5032465;28;20503;-77
2022/12/30 14:53:48;;;;;;;0.28;0.28;;;;;;;;;;5031436;28;20033;-78
2022/12/30 14:56:16;;;;;;;0.40;0.40;;;;;;;;;;5032235;28;20036;-77
2022/12/30 14:58:41;;;;;;;2.05;1.17;;;;;;;;;;5031551;28;20071;-77
2022/12/30 15:01:10;;;;;;;0.20;0.20;;;;;;;;;;5030269;28;20037;-76
2022/12/30 15:03:36;;;;;;;0.30;0.30;;;;;;;;;;5029800;28;20030;-77
2022/12/30 15:06:01;;;;;;;0.10;0.10;;;;;;;;;;5029489;28;20049;-77
2022/12/30 15:08:34;;;;;;;0.20;0.20;;;;;;;;;;5033326;28;20078;-77
2022/12/30 15:11:02;;;;;;;0.15;0.15;;;;;;;;;;4998230;28;20052;-78
2022/12/30 15:13:27;;;;;;;0.30;0.30;;;;;;;;;;5013214;28;20021;-77
2022/12/30 15:15:53;;;;;;;0.20;0.20;;;;;;;;;;5031577;28;20071;-77
2022/12/30 15:18:26;;;;;;;0.25;0.25;;;;;;;;;;5031683;28;20096;-77
2022/12/30 15:20:51;;;;;;;0.20;0.20;;;;;;;;;;5031826;28;20040;-77
2022/12/30 15:23:17;;;;;;;0.30;0.30;;;;;;;;;;5031600;28;20508;-78
2022/12/30 15:25:53;;;;;;;0.20;0.20;;;;;;;;;;5031016;28;20485;-77
2022/12/30 15:28:18;;;;;;;0.20;0.20;;;;;;;;;;5013611;28;20021;-77
2022/12/30 15:30:50;;;;;;;0.17;0.17;;;;;;;;;;5031713;28;20479;-78
2022/12/30 15:33:15;;;;;;;0.20;0.20;;;;;;;;;;5031400;28;20120;-76
2022/12/30 15:35:41;;;;;;;0.20;0.20;;;;;;;;;;5031388;28;20109;-76
2022/12/30 15:38:11;;;;;;;0.28;0.28;;;;;;;;;;5031023;28;20042;-77
2022/12/30 15:40:37;;;;;;;0.52;0.52;;;;;;;;;;5013467;28;20071;-77
2022/12/30 15:43:04;;;;;;;0.20;0.20;;;;;;;;;;5031419;28;20033;-77
2022/12/30 15:45:35;;;;;;;0.40;0.40;;;;;;;;;;5013306;28;20477;-77
2022/12/30 15:48:01;;;;;;;0.20;0.20;;;;;;;;;;5013027;28;20086;-77
2022/12/30 15:50:28;;;;;;;0.20;0.20;;;;;;;;;;5029634;28;20021;-76